Time;durP1;ratioP1;P1;durP2;ratioP2;P2;SDS_P1;SDS_P2;PMS_P1;PMS_P2;Temp;Humidity;BMP_temperature;BMP_pressure;BME280_temperature;BME280_humidity;BME280_pressure;Samples;Min_cycle;Max_cycle;Signal;HPM_P1;HPM_P2
2021/12/13 00:00:28;;;;;;;;;28.00;27.67;;;;;-149.00;100.00;66333.84;5123754;27;45368;-75
2021/12/13 00:03:04;;;;;;;;;24.33;22.33;;;;;-149.00;100.00;66333.84;5123272;27;45310;-76
2021/12/13 00:05:40;;;;;;;;;20.00;17.00;;;;;-149.00;100.00;66333.84;5123278;27;45679;-75
2021/12/13 00:08:10;;;;;;;;;26.67;23.00;;;;;-149.00;100.00;66333.84;5121913;27;45253;-76
2021/12/13 00:10:55;;;;;;;;;20.00;19.33;;;;;-149.00;100.00;66333.84;5123508;27;45362;-75
2021/12/13 00:13:34;;;;;;;;;25.33;21.00;;;;;-149.00;100.00;66333.84;5121899;27;46036;-75
2021/12/13 00:16:04;;;;;;;;;25.33;23.33;;;;;-149.00;100.00;66333.84;5121547;27;47203;-75
2021/12/13 00:18:38;;;;;;;;;27.00;24.33;;;;;-149.00;100.00;66333.84;5121645;27;45352;-75
2021/12/13 00:21:09;;;;;;;;;31.67;25.67;;;;;-149.00;100.00;66333.84;5123419;27;45301;-75
2021/12/13 00:23:44;;;;;;;;;29.33;24.00;;;;;-149.00;100.00;66333.84;5123072;27;45324;-75
2021/12/13 00:26:15;;;;;;;;;23.67;20.33;;;;;-149.00;100.00;66333.84;5121619;27;48480;-75
2021/12/13 00:28:41;;;;;;;;;21.00;20.00;;;;;-149.00;100.00;66333.84;5122990;27;45423;-76
2021/12/13 00:31:12;;;;;;;;;25.67;25.33;;;;;-149.00;100.00;66333.84;5121741;27;45876;-75
2021/12/13 00:33:57;;;;;;;;;26.00;23.33;;;;;-149.00;100.00;66333.84;5122914;27;45233;-75
2021/12/13 00:36:47;;;;;;;;;28.33;22.33;;;;;-149.00;100.00;66333.84;5122992;27;46384;-75
2021/12/13 00:39:18;;;;;;;;;21.00;18.33;;;;;-149.00;100.00;66333.84;5121605;27;45667;-76
2021/12/13 00:41:47;;;;;;;;;19.00;19.00;;;;;-149.00;100.00;66333.84;5110881;27;45340;-75
2021/12/13 00:44:20;;;;;;;;;22.00;19.67;;;;;-149.00;100.00;66333.84;5101816;27;45521;-75
2021/12/13 00:46:51;;;;;;;;;21.67;19.00;;;;;-149.00;100.00;66333.84;5100245;27;46779;-75
2021/12/13 00:49:20;;;;;;;;;21.00;19.00;;;;;-149.00;100.00;66333.84;5102060;27;45221;-75
2021/12/13 00:51:49;;;;;;;;;22.00;21.00;;;;;-149.00;100.00;66333.84;5102243;27;45553;-75
2021/12/13 00:54:33;;;;;;;;;22.33;19.33;;;;;-149.00;100.00;66333.84;5100632;27;47299;-75
2021/12/13 00:56:59;;;;;;;;;18.67;17.67;;;;;-149.00;100.00;66333.84;5100489;27;48334;-75
2021/12/13 00:59:27;;;;;;;;;20.33;18.67;;;;;-149.00;100.00;66333.84;5100795;27;45209;-76
2021/12/13 01:02:07;;;;;;;;;20.67;18.67;;;;;-149.00;100.00;66333.84;5101601;27;45431;-75
2021/12/13 01:04:56;;;;;;;;;22.33;22.33;;;;;-149.00;100.00;66333.84;5101839;27;45308;-76
2021/12/13 01:07:34;;;;;;;;;23.33;19.67;;;;;-149.00;100.00;66333.84;5100335;27;48092;-75
2021/12/13 01:10:30;;;;;;;;;22.67;21.67;;;;;-149.00;100.00;66333.84;5101745;27;45361;-75
2021/12/13 01:12:59;;;;;;;;;25.00;21.67;;;;;-149.00;100.00;66333.84;5101827;27;45336;-75
2021/12/13 01:15:36;;;;;;;;;24.67;22.67;;;;;-149.00;100.00;66333.84;5100298;27;47295;-75
2021/12/13 01:18:22;;;;;;;;;22.33;21.67;;;;;-149.00;100.00;66333.84;5101316;27;45211;-75
2021/12/13 01:21:02;;;;;;;;;24.67;22.00;;;;;-149.00;100.00;66333.84;5101622;27;45195;-76
2021/12/13 01:28:47;;;;;;;;;20.33;19.00;;;;;-149.00;100.00;66333.84;5101226;27;45922;-75
2021/12/13 01:31:16;;;;;;;;;28.33;23.67;;;;;-149.00;100.00;66333.84;5101314;27;45390;-75
2021/12/13 01:33:45;;;;;;;;;22.67;19.00;;;;;-149.00;100.00;66333.84;5100034;27;45302;-76
2021/12/13 01:36:19;;;;;;;;;25.67;21.00;;;;;-149.00;100.00;66333.84;5101206;27;46251;-75
2021/12/13 01:38:52;;;;;;;;;21.00;19.00;;;;;-149.00;100.00;66333.84;5099727;27;47878;-75
2021/12/13 01:41:26;;;;;;;;;24.33;21.33;;;;;-149.00;100.00;66333.84;5099755;27;45204;-75
2021/12/13 01:43:55;;;;;;;;;19.00;19.00;;;;;-149.00;100.00;66333.84;5101244;27;45246;-75
2021/12/13 01:46:23;;;;;;;;;20.67;19.33;;;;;-149.00;100.00;66333.84;5100959;27;45223;-75
2021/12/13 01:48:50;;;;;;;;;22.33;19.00;;;;;-149.00;100.00;66333.84;5100967;27;46401;-75
2021/12/13 01:51:26;;;;;;;;;18.67;17.33;;;;;-149.00;100.00;66333.84;5099865;27;45297;-75
2021/12/13 01:53:53;;;;;;;;;17.67;16.33;;;;;-149.00;100.00;66333.84;5101264;27;45369;-75
2021/12/13 01:59:57;;;;;;;;;20.67;20.67;;;;;-149.00;100.00;66333.84;5100862;27;45357;-75
2021/12/13 02:02:29;;;;;;;;;18.33;16.00;;;;;-149.00;100.00;66333.84;5097292;27;45346;-75
2021/12/13 02:05:04;;;;;;;;;19.00;15.00;;;;;-149.00;100.00;66333.84;5101050;27;45389;-76
2021/12/13 02:07:47;;;;;;;;;17.33;15.67;;;;;-149.00;100.00;66333.84;5099580;27;47158;-75
2021/12/13 02:10:21;;;;;;;;;15.00;13.33;;;;;-149.00;100.00;66333.84;5100796;27;45383;-75
2021/12/13 02:12:57;;;;;;;;;15.67;13.00;;;;;-149.00;100.00;66333.84;5099529;27;45174;-75
2021/12/13 02:18:13;;;;;;;;;14.67;14.67;;;;;-149.00;100.00;66333.84;5100181;27;45365;-75
2021/12/13 02:20:43;;;;;;;;;13.00;10.67;;;;;-149.00;100.00;66333.84;5099394;27;47490;-75
2021/12/13 02:23:10;;;;;;;;;16.33;15.33;;;;;-149.00;100.00;66333.84;5100634;27;45374;-75
2021/12/13 02:25:46;;;;;;;;;17.67;15.33;;;;;-149.00;100.00;66333.84;5100827;27;45373;-75
2021/12/13 02:28:16;;;;;;;;;13.67;13.33;;;;;-149.00;100.00;66333.84;5099007;27;47625;-75
2021/12/13 02:30:50;;;;;;;;;16.00;15.67;;;;;-149.00;100.00;66333.84;5099320;27;48412;-75
2021/12/13 02:33:21;;;;;;;;;18.00;15.67;;;;;-149.00;100.00;66333.84;5099041;27;45273;-75
2021/12/13 02:35:51;;;;;;;;;17.33;13.33;;;;;-149.00;100.00;66333.84;5099312;27;45413;-75
2021/12/13 02:38:20;;;;;;;;;14.67;14.67;;;;;-149.00;100.00;66333.84;5100412;27;45339;-75
2021/12/13 02:40:46;;;;;;;;;16.67;14.00;;;;;-149.00;100.00;66333.84;5103870;27;46654;-75
2021/12/13 02:43:15;;;;;;;;;17.00;15.67;;;;;-149.00;100.00;66333.84;5119488;27;45390;-76
2021/12/13 02:45:45;;;;;;;;;17.33;15.67;;;;;-149.00;100.00;66333.84;5121279;27;45224;-75
2021/12/13 02:48:34;;;;;;;;;14.00;14.00;;;;;-149.00;100.00;66333.84;5120698;27;45429;-75
2021/12/13 02:51:02;;;;;;;;;19.00;15.33;;;;;-149.00;100.00;66333.84;5119469;27;47204;-75
2021/12/13 02:53:48;;;;;;;;;14.67;14.67;;;;;-149.00;100.00;66333.84;5119543;27;45244;-75
2021/12/13 02:56:17;;;;;;;;;14.00;13.00;;;;;-149.00;100.00;66333.84;5119570;27;45269;-75
2021/12/13 02:58:43;;;;;;;;;14.00;13.00;;;;;-149.00;100.00;66333.84;5119396;27;45955;-75
2021/12/13 03:01:22;;;;;;;;;12.67;11.33;;;;;-149.00;100.00;66333.84;5120549;27;45323;-76
2021/12/13 03:03:54;;;;;;;;;16.67;16.00;;;;;-149.00;100.00;66333.84;5120774;27;45327;-76
2021/12/13 03:06:30;;;;;;;;;17.00;15.33;;;;;-149.00;100.00;66333.84;5119392;27;45269;-75
2021/12/13 03:09:01;;;;;;;;;14.33;13.33;;;;;-149.00;100.00;66333.84;5122714;27;45213;-75
2021/12/13 03:11:33;;;;;;;;;18.67;16.67;;;;;-149.00;100.00;66333.84;5122828;27;46211;-75
2021/12/13 03:14:05;;;;;;;;;17.33;15.33;;;;;-149.00;100.00;66333.84;5122882;27;45304;-76
2021/12/13 03:16:39;;;;;;;;;19.67;16.67;;;;;-149.00;100.00;66333.84;5124229;27;45268;-75
2021/12/13 03:19:08;;;;;;;;;18.33;16.67;;;;;-149.00;100.00;66333.84;5122714;27;45924;-75
2021/12/13 03:22:02;;;;;;;;;19.33;16.33;;;;;-149.00;100.00;66333.84;5124098;27;45513;-75
2021/12/13 03:24:34;;;;;;;;;13.00;12.33;;;;;-149.00;100.00;66333.84;5124166;27;45188;-76
2021/12/13 03:27:06;;;;;;;;;16.00;14.00;;;;;-149.00;100.00;66333.84;5122832;27;45354;-75
2021/12/13 03:29:53;;;;;;;;;18.33;17.00;;;;;-149.00;100.00;66333.84;5122598;27;45904;-75
2021/12/13 03:32:21;;;;;;;;;18.33;18.00;;;;;-149.00;100.00;66333.84;5123606;27;46578;-75
2021/12/13 03:35:19;;;;;;;;;19.67;15.33;;;;;-149.00;100.00;66333.84;5124017;27;45222;-75
2021/12/13 03:37:45;;;;;;;;;17.67;15.33;;;;;-149.00;100.00;66333.84;5123723;27;45356;-75
2021/12/13 03:40:18;;;;;;;;;16.33;15.00;;;;;-149.00;100.00;66333.84;5123788;27;45529;-75
2021/12/13 03:42:55;;;;;;;;;16.67;15.00;;;;;-149.00;100.00;66333.84;5102857;27;45974;-75
2021/12/13 03:45:34;;;;;;;;;17.33;14.00;;;;;-149.00;100.00;66333.84;5103247;27;45340;-75
2021/12/13 03:48:03;;;;;;;;;25.00;20.00;;;;;-149.00;100.00;66333.84;5102753;27;45235;-75
2021/12/13 03:50:45;;;;;;;;;18.00;16.33;;;;;-149.00;100.00;66333.84;5101585;27;46760;-75
2021/12/13 03:53:21;;;;;;;;;15.33;13.33;;;;;-149.00;100.00;66333.84;5102978;27;45549;-75
2021/12/13 03:55:52;;;;;;;;;17.00;17.00;;;;;-149.00;100.00;66333.84;5101574;27;46010;-75
2021/12/13 03:58:20;;;;;;;;;18.00;17.67;;;;;-149.00;100.00;66333.84;5101585;27;45387;-76
2021/12/13 04:01:15;;;;;;;;;16.00;14.33;;;;;-149.00;100.00;66333.84;5102582;27;45215;-76
2021/12/13 04:03:42;;;;;;;;;19.67;18.67;;;;;-149.00;100.00;66333.84;5101825;27;46442;-75
2021/12/13 04:06:08;;;;;;;;;19.00;15.67;;;;;-149.00;100.00;66333.84;5102712;27;45281;-75
2021/12/13 04:08:35;;;;;;;;;17.00;17.00;;;;;-149.00;100.00;66333.84;5102846;27;45201;-76
2021/12/13 04:11:08;;;;;;;;;20.33;17.67;;;;;-149.00;100.00;66333.84;5101528;27;47421;-75
2021/12/13 04:13:48;;;;;;;;;17.00;16.33;;;;;-149.00;100.00;66333.84;5101283;27;48373;-75
2021/12/13 04:16:47;;;;;;;;;18.33;18.33;;;;;-149.00;100.00;66333.84;5101080;27;45341;-75
2021/12/13 04:19:17;;;;;;;;;20.33;17.00;;;;;-149.00;100.00;66333.84;5100949;27;45240;-75
2021/12/13 04:21:42;;;;;;;;;19.33;17.00;;;;;-149.00;100.00;66333.84;5102109;27;45394;-75
2021/12/13 04:24:12;;;;;;;;;22.00;19.00;;;;;-149.00;100.00;66333.84;5100970;27;48175;-75
2021/12/13 04:26:43;;;;;;;;;16.33;16.33;;;;;-149.00;100.00;66333.84;5101246;27;45241;-75
2021/12/13 04:29:19;;;;;;;;;22.00;20.00;;;;;-149.00;100.00;66333.84;5102606;27;45315;-75
2021/12/13 04:31:44;;;;;;;;;19.67;19.33;;;;;-149.00;100.00;66333.84;5100846;27;47264;-75
2021/12/13 04:34:10;;;;;;;;;18.00;15.33;;;;;-149.00;100.00;66333.84;5102282;27;45306;-75
2021/12/13 04:36:44;;;;;;;;;22.33;20.00;;;;;-149.00;100.00;66333.84;5102488;27;45165;-75
2021/12/13 04:39:18;;;;;;;;;21.00;21.00;;;;;-149.00;100.00;66333.84;5101251;27;45275;-75
2021/12/13 04:41:51;;;;;;;;;19.67;17.67;;;;;-149.00;100.00;66333.84;5114018;27;45482;-75
2021/12/13 04:44:29;;;;;;;;;19.67;19.67;;;;;-149.00;100.00;66333.84;5122557;27;45396;-75
2021/12/13 04:46:55;;;;;;;;;18.33;17.33;;;;;-149.00;100.00;66333.84;5122648;27;45212;-75
2021/12/13 04:49:23;;;;;;;;;22.00;19.67;;;;;-149.00;100.00;66333.84;5121287;27;45305;-75
2021/12/13 04:52:01;;;;;;;;;18.00;16.00;;;;;-149.00;100.00;66333.84;5122628;27;45468;-75
2021/12/13 04:54:31;;;;;;;;;19.00;18.67;;;;;-149.00;100.00;66333.84;5121107;27;47372;-75
2021/12/13 04:56:58;;;;;;;;;22.33;19.67;;;;;-149.00;100.00;66333.84;5122651;27;45278;-75
2021/12/13 04:59:26;;;;;;;;;18.33;18.33;;;;;-149.00;100.00;66333.84;5122754;27;45249;-75
2021/12/13 05:01:54;;;;;;;;;18.67;17.33;;;;;-149.00;100.00;66333.84;5120722;27;46332;-75
2021/12/13 05:04:21;;;;;;;;;22.00;19.67;;;;;-149.00;100.00;66333.84;5121078;27;48363;-76
2021/12/13 05:06:50;;;;;;;;;21.00;17.33;;;;;-149.00;100.00;66333.84;5122537;27;45221;-75
2021/12/13 05:09:18;;;;;;;;;18.00;16.33;;;;;-149.00;100.00;66333.84;5121208;27;45319;-75
2021/12/13 05:11:48;;;;;;;;;20.00;16.33;;;;;-149.00;100.00;66333.84;5122434;27;45445;-75
2021/12/13 05:14:16;;;;;;;;;21.33;19.33;;;;;-149.00;100.00;66333.84;5122307;27;45519;-75
2021/12/13 05:16:52;;;;;;;;;16.67;15.33;;;;;-149.00;100.00;66333.84;5120768;27;46064;-75
2021/12/13 05:19:34;;;;;;;;;19.00;16.67;;;;;-149.00;100.00;66333.84;5122373;27;45319;-75
2021/12/13 05:22:02;;;;;;;;;23.00;18.00;;;;;-149.00;100.00;66333.84;5120877;27;46104;-75
2021/12/13 05:24:31;;;;;;;;;18.67;17.33;;;;;-149.00;100.00;66333.84;5122158;27;45506;-75
2021/12/13 05:27:14;;;;;;;;;19.33;19.00;;;;;-149.00;100.00;66333.84;5120827;27;45250;-75
2021/12/13 05:29:52;;;;;;;;;19.67;17.33;;;;;-149.00;100.00;66333.84;5120894;27;45274;-75
2021/12/13 05:32:24;;;;;;;;;20.00;19.67;;;;;-149.00;100.00;66333.84;5121786;27;45240;-75
2021/12/13 05:35:08;;;;;;;;;25.33;20.33;;;;;-149.00;100.00;66333.84;5122000;27;46346;-76
2021/12/13 05:37:43;;;;;;;;;14.00;14.00;;;;;-149.00;100.00;66333.84;5122003;27;45336;-75
2021/12/13 05:40:13;;;;;;;;;22.00;20.00;;;;;-149.00;100.00;66333.84;5122095;27;45296;-75
2021/12/13 05:42:46;;;;;;;;;16.00;15.00;;;;;-149.00;100.00;66333.84;5100501;27;46308;-75
2021/12/13 05:45:16;;;;;;;;;19.33;17.67;;;;;-149.00;100.00;66333.84;5101170;27;46655;-75
2021/12/13 05:48:23;;;;;;;;;21.00;18.33;;;;;-149.00;100.00;66333.84;5099418;27;45466;-76
2021/12/13 05:50:51;;;;;;;;;18.33;17.00;;;;;-149.00;100.00;66333.84;5021486;28;45443;-75
2021/12/13 05:53:28;;;;;;;;;22.00;19.00;;;;;-149.00;100.00;66333.84;5103975;27;45538;-75
2021/12/13 05:55:56;;;;;;;;;17.67;17.00;;;;;-149.00;100.00;66333.84;5100750;27;47359;-75
2021/12/13 05:58:47;;;;;;;;;15.33;15.33;;;;;-149.00;100.00;66333.84;5101085;27;45321;-75
2021/12/13 06:01:30;;;;;;;;;17.33;16.00;;;;;-149.00;100.00;66333.84;5100987;27;45459;-75
2021/12/13 06:04:07;;;;;;;;;16.33;15.00;;;;;-149.00;100.00;66333.84;5100885;27;45399;-75
2021/12/13 06:06:43;;;;;;;;;17.67;16.67;;;;;-149.00;100.00;66333.84;5100864;27;45214;-75
2021/12/13 06:09:09;;;;;;;;;21.00;18.00;;;;;-149.00;100.00;66333.84;5099431;27;45790;-75
2021/12/13 06:11:39;;;;;;;;;14.00;14.00;;;;;-149.00;100.00;66333.84;5099674;27;45509;-75
2021/12/13 06:14:07;;;;;;;;;15.33;13.00;;;;;-149.00;100.00;66333.84;5099472;27;47334;-75
2021/12/13 06:16:41;;;;;;;;;16.00;14.00;;;;;-149.00;100.00;66333.84;5099189;27;48208;-75
2021/12/13 06:19:34;;;;;;;;;12.33;12.33;;;;;-149.00;100.00;66333.84;5099112;27;46143;-75
2021/12/13 06:22:12;;;;;;;;;10.00;10.00;;;;;-149.00;100.00;66333.84;5094426;27;45289;-76
2021/12/13 06:24:40;;;;;;;;;11.33;10.00;;;;;-149.00;100.00;66333.84;5099343;27;46311;-75
2021/12/13 06:27:11;;;;;;;;;8.67;8.67;;;;;-149.00;100.00;66333.84;5099078;27;47346;-75
2021/12/13 06:29:51;;;;;;;;;13.33;13.33;;;;;-149.00;100.00;66333.84;5099251;27;45303;-75
2021/12/13 06:32:21;;;;;;;;;11.33;11.00;;;;;-149.00;100.00;66333.84;5098935;27;45268;-75
2021/12/13 06:34:46;;;;;;;;;10.00;10.00;;;;;-149.00;100.00;66333.84;5100585;27;45166;-75
2021/12/13 06:37:12;;;;;;;;;9.00;8.00;;;;;-149.00;100.00;66333.84;5098980;27;45763;-75
2021/12/13 06:39:37;;;;;;;;;13.33;11.33;;;;;-149.00;100.00;66333.84;5100560;27;45210;-75
2021/12/13 06:42:06;;;;;;;;;11.00;10.33;;;;;-149.00;100.00;66333.84;5113452;27;45193;-75
2021/12/13 06:44:42;;;;;;;;;9.00;8.33;;;;;-149.00;100.00;66333.84;5120643;27;45391;-75
2021/12/13 06:47:15;;;;;;;;;9.33;8.33;;;;;-149.00;100.00;66333.84;5120677;27;45621;-75
2021/12/13 06:49:48;;;;;;;;;9.67;8.00;;;;;-149.00;100.00;66333.84;5119424;27;45307;-75
2021/12/13 06:52:14;;;;;;;;;10.00;8.00;;;;;-149.00;100.00;66333.84;5119499;27;45312;-75
2021/12/13 06:54:47;;;;;;;;;9.00;8.00;;;;;-149.00;100.00;66333.84;5120780;27;45489;-75
2021/12/13 06:57:19;;;;;;;;;8.67;8.67;;;;;-149.00;100.00;66333.84;5120895;27;45438;-75
2021/12/13 06:59:50;;;;;;;;;6.00;5.67;;;;;-149.00;100.00;66333.84;5120891;27;45181;-75
2021/12/13 07:02:37;;;;;;;;;5.33;5.33;;;;;-149.00;100.00;66333.84;5120340;27;45255;-75
2021/12/13 07:05:10;;;;;;;;;6.33;6.00;;;;;-149.00;100.00;66333.84;5120815;27;45359;-75
2021/12/13 07:07:47;;;;;;;;;8.33;8.00;;;;;-149.00;100.00;66333.84;5119105;27;47173;-75
2021/12/13 07:10:19;;;;;;;;;7.00;6.33;;;;;-149.00;100.00;66333.84;5120620;27;45355;-75
2021/12/13 07:13:19;;;;;;;;;6.67;6.67;;;;;-149.00;100.00;66333.84;5120879;27;45388;-75
2021/12/13 07:15:50;;;;;;;;;6.00;5.33;;;;;-149.00;100.00;66333.84;5082269;27;45489;-75
2021/12/13 07:18:21;;;;;;;;;8.00;8.00;;;;;-149.00;100.00;66333.84;5120434;27;45437;-75
2021/12/13 07:21:02;;;;;;;;;10.67;8.33;;;;;-149.00;100.00;66333.84;5119114;27;45213;-75
2021/12/13 07:23:48;;;;;;;;;6.00;6.00;;;;;-149.00;100.00;66333.84;5119259;27;45381;-75
2021/12/13 07:26:14;;;;;;;;;7.00;7.00;;;;;-149.00;100.00;66333.84;5120343;27;45336;-75
2021/12/13 07:28:40;;;;;;;;;7.33;6.33;;;;;-149.00;100.00;66333.84;5118971;27;48390;-75
2021/12/13 07:31:08;;;;;;;;;7.67;6.67;;;;;-149.00;100.00;66333.84;5120404;27;45267;-75
2021/12/13 07:33:40;;;;;;;;;10.67;9.00;;;;;-149.00;100.00;66333.84;5120258;27;45258;-76
2021/12/13 07:36:27;;;;;;;;;9.67;9.67;;;;;-149.00;100.00;66333.84;5120294;27;45318;-77
2021/12/13 07:39:00;;;;;;;;;14.00;14.00;;;;;-149.00;100.00;66333.84;5120066;27;45391;-77
2021/12/13 07:41:37;;;;;;;;;12.67;11.33;;;;;-149.00;100.00;66333.84;5110957;27;45299;-77
2021/12/13 07:44:03;;;;;;;;;12.67;11.33;;;;;-149.00;100.00;66333.84;5097922;27;45276;-77
2021/12/13 07:46:32;;;;;;;;;10.67;10.67;;;;;-149.00;100.00;66333.84;5099242;27;45232;-76
2021/12/13 07:49:09;;;;;;;;;11.67;10.33;;;;;-149.00;100.00;66333.84;5097802;27;47223;-76
2021/12/13 07:51:46;;;;;;;;;10.33;9.33;;;;;-149.00;100.00;66333.84;5099580;27;45179;-75
2021/12/13 07:54:17;;;;;;;;;10.67;10.33;;;;;-149.00;100.00;66333.84;5099590;27;45154;-76
2021/12/13 07:56:57;;;;;;;;;11.00;8.67;;;;;-149.00;100.00;66333.84;5102292;27;46129;-76
2021/12/13 07:59:33;;;;;;;;;10.67;10.67;;;;;-149.00;100.00;66333.84;5101457;27;48630;-76
2021/12/13 08:02:10;;;;;;;;;7.33;7.33;;;;;-149.00;100.00;66333.84;5102536;27;45283;-78
2021/12/13 08:04:35;;;;;;;;;8.00;7.00;;;;;-149.00;100.00;66333.84;5101591;27;45362;-77
2021/12/13 08:07:29;;;;;;;;;6.67;6.33;;;;;-149.00;100.00;66333.84;5101181;27;47319;-76
2021/12/13 08:09:59;;;;;;;;;8.00;7.00;;;;;-149.00;100.00;66333.84;5130566;27;47038;-77
2021/12/13 08:12:29;;;;;;;;;10.00;8.67;;;;;-149.00;100.00;66333.84;5101227;27;45390;-76
2021/12/13 08:15:15;;;;;;;;;8.67;8.33;;;;;-149.00;100.00;66333.84;5102825;27;45336;-76
2021/12/13 08:18:06;;;;;;;;;8.33;7.67;;;;;-149.00;100.00;66333.84;5102310;27;45674;-76
2021/12/13 08:20:40;;;;;;;;;6.00;5.67;;;;;-149.00;100.00;66333.84;5102612;27;47080;-75
2021/12/13 08:23:14;;;;;;;;;7.33;7.33;;;;;-149.00;100.00;66333.84;5102795;27;45227;-75
2021/12/13 08:25:40;;;;;;;;;7.00;7.00;;;;;-149.00;100.00;66333.84;5102746;27;45227;-75
2021/12/13 08:28:10;;;;;;;;;9.67;7.33;;;;;-149.00;100.00;66333.84;5102403;27;45495;-75
2021/12/13 08:30:48;;;;;;;;;5.67;5.67;;;;;-149.00;100.00;66333.84;5102054;27;45310;-76
2021/12/13 08:33:15;;;;;;;;;6.67;6.33;;;;;-149.00;100.00;66333.84;5100827;27;45270;-76
2021/12/13 08:36:33;;;;;;;;;7.00;6.33;;;;;-149.00;100.00;66333.84;5102353;27;45365;-76
2021/12/13 08:39:15;;;;;;;;;5.00;5.00;;;;;-149.00;100.00;66333.84;5079623;28;45374;-75
2021/12/13 08:41:42;;;;;;;;;7.67;7.67;;;;;-149.00;100.00;66333.84;5100505;27;48591;-76
2021/12/13 08:44:11;;;;;;;;;9.00;8.00;;;;;-149.00;100.00;66333.84;5100577;27;45523;-75
2021/12/13 08:46:46;;;;;;;;;8.00;8.00;;;;;-149.00;100.00;66333.84;5102266;27;45444;-75
2021/12/13 08:49:34;;;;;;;;;11.67;9.00;;;;;-149.00;100.00;66333.84;5100674;27;46300;-76
2021/12/13 08:52:22;;;;;;;;;16.33;16.33;;;;;-149.00;100.00;66333.84;5100553;27;47299;-75
2021/12/13 08:54:57;;;;;;;;;10.00;8.00;;;;;-149.00;100.00;66333.84;5102104;27;45227;-76
2021/12/13 08:57:34;;;;;;;;;6.67;6.67;;;;;-149.00;100.00;66333.84;5100927;27;45201;-76
2021/12/13 09:00:12;;;;;;;;;7.33;6.33;;;;;-149.00;100.00;66333.84;5100518;27;47053;-76
2021/12/13 09:02:41;;;;;;;;;5.33;5.00;;;;;-149.00;100.00;66333.84;5101471;27;46436;-76
2021/12/13 09:05:12;;;;;;;;;8.67;6.33;;;;;-149.00;100.00;66333.84;5116484;27;45829;-76
2021/12/13 09:07:58;;;;;;;;;6.33;6.33;;;;;-149.00;100.00;66333.84;5121998;27;45352;-76
2021/12/13 09:10:38;;;;;;;;;6.00;6.00;;;;;-149.00;100.00;66333.84;5122451;27;45326;-76
2021/12/13 09:13:04;;;;;;;;;4.00;4.00;;;;;-149.00;100.00;66333.84;5120839;27;48495;-77
2021/12/13 09:15:33;;;;;;;;;5.00;4.67;;;;;-149.00;100.00;66333.84;5122002;27;45471;-77
2021/12/13 09:17:58;;;;;;;;;2.00;2.00;;;;;-149.00;100.00;66333.84;5121054;27;45317;-77
2021/12/13 09:20:28;;;;;;;;;3.00;2.67;;;;;-149.00;100.00;66333.84;5120619;27;47578;-77
2021/12/13 09:23:06;;;;;;;;;5.67;4.67;;;;;-149.00;100.00;66333.84;5122040;27;45396;-77
2021/12/13 09:25:40;;;;;;;;;3.00;2.33;;;;;-149.00;100.00;66333.84;5120708;27;46058;-76
2021/12/13 09:28:27;;;;;;;;;4.00;4.00;;;;;-149.00;100.00;66333.84;5122355;27;45279;-76
2021/12/13 09:31:00;;;;;;;;;5.00;3.00;;;;;-149.00;100.00;66333.84;5120408;27;46923;-76
2021/12/13 09:33:30;;;;;;;;;2.67;2.67;;;;;-149.00;100.00;66333.84;5120562;27;48786;-75
2021/12/13 09:36:11;;;;;;;;;2.00;2.00;;;;;-149.00;100.00;66333.84;5120714;27;46162;-75
2021/12/13 09:39:09;;;;;;;;;6.00;6.00;;;;;-149.00;100.00;66333.84;5121939;27;45347;-75
2021/12/13 09:41:59;;;;;;;;;2.67;2.67;;;;;-149.00;100.00;66333.84;5109300;27;45336;-75
2021/12/13 09:44:44;;;;;;;;;5.00;5.00;;;;;-149.00;100.00;66333.84;5119376;27;47372;-75
2021/12/13 09:47:14;;;;;;;;;3.67;3.67;;;;;-149.00;100.00;66333.84;5121547;27;45363;-76
2021/12/13 09:50:06;;;;;;;;;3.00;3.00;;;;;-149.00;100.00;66333.84;5120459;27;45274;-76
2021/12/13 09:52:47;;;;;;;;;1.00;1.00;;;;;-149.00;100.00;66333.84;5121724;27;45448;-75
2021/12/13 09:55:33;;;;;;;;;2.00;2.00;;;;;-149.00;100.00;66333.84;5120184;27;47061;-76
2021/12/13 09:58:12;;;;;;;;;1.00;1.00;;;;;-149.00;100.00;66333.84;5121629;27;45268;-76
2021/12/13 10:01:10;;;;;;;;;1.67;1.67;;;;;-149.00;100.00;66333.84;5121610;27;45439;-75
2021/12/13 10:03:48;;;;;;;;;1.00;1.00;;;;;-149.00;100.00;66333.84;5120379;27;45292;-75
2021/12/13 10:06:17;;;;;;;;;1.33;1.33;;;;;-149.00;100.00;66333.84;5121620;27;46354;-75
2021/12/13 10:08:49;;;;;;;;;1.00;1.00;;;;;-149.00;100.00;66333.84;5108066;27;45529;-76
2021/12/13 10:11:29;;;;;;;;;2.33;2.33;;;;;-149.00;100.00;66333.84;5096387;27;45359;-75
2021/12/13 10:13:56;;;;;;;;;2.00;2.00;;;;;-149.00;100.00;66333.84;5100661;27;45599;-76
2021/12/13 10:16:27;;;;;;;;;1.33;1.33;;;;;-149.00;100.00;66333.84;5097127;27;47562;-76
2021/12/13 10:18:53;;;;;;;;;2.00;2.00;;;;;-149.00;100.00;66333.84;5099539;27;45485;-76
2021/12/13 10:21:32;;;;;;;;;1.33;1.33;;;;;-149.00;100.00;66333.84;5099238;27;45379;-76
2021/12/13 10:24:25;;;;;;;;;1.00;1.00;;;;;-149.00;100.00;66333.84;5100558;27;45253;-75
2021/12/13 10:26:54;;;;;;;;;1.00;1.00;;;;;-149.00;100.00;66333.84;5094075;27;47470;-76
2021/12/13 10:29:23;;;;;;;;;1.00;1.00;;;;;-149.00;100.00;66333.84;5099334;27;45471;-75
2021/12/13 10:31:55;;;;;;;;;2.67;2.67;;;;;-149.00;100.00;66333.84;5099649;27;45389;-75
2021/12/13 10:34:27;;;;;;;;;1.67;1.67;;;;;-149.00;100.00;66333.84;5098973;27;45412;-75
2021/12/13 10:36:57;;;;;;;;;2.00;2.00;;;;;-149.00;100.00;66333.84;5100495;27;45587;-75
2021/12/13 10:39:29;;;;;;;;;1.67;1.67;;;;;-149.00;100.00;66333.84;5098137;27;45249;-75
2021/12/13 10:41:57;;;;;;;;;3.00;3.00;;;;;-149.00;100.00;66333.84;5099973;27;45224;-75
2021/12/13 10:44:28;;;;;;;;;1.00;1.00;;;;;-149.00;100.00;66333.84;5098678;27;46218;-75
2021/12/13 10:46:58;;;;;;;;;2.00;2.00;;;;;-149.00;100.00;66333.84;5098437;27;48369;-75
2021/12/13 10:49:27;;;;;;;;;1.67;1.67;;;;;-149.00;100.00;66333.84;5099964;27;45392;-75
2021/12/13 10:52:06;;;;;;;;;1.00;1.00;;;;;-149.00;100.00;66333.84;5098826;27;45382;-73
2021/12/13 10:54:40;;;;;;;;;1.00;1.00;;;;;-149.00;100.00;66333.84;5100046;27;45979;-74
2021/12/13 10:57:10;;;;;;;;;1.33;1.33;;;;;-149.00;100.00;66333.84;5099892;27;46848;-74
2021/12/13 10:59:36;;;;;;;;;2.00;2.00;;;;;-149.00;100.00;66333.84;5098535;27;45371;-75
2021/12/13 11:02:11;;;;;;;;;2.00;2.00;;;;;-149.00;100.00;66333.84;5098323;27;45354;-75
2021/12/13 11:04:49;;;;;;;;;2.00;2.00;;;;;-149.00;100.00;66333.84;5099975;27;45514;-75
2021/12/13 11:07:15;;;;;;;;;2.67;2.67;;;;;-149.00;100.00;66333.84;5098399;27;47982;-75
2021/12/13 11:09:43;;;;;;;;;4.00;3.67;;;;;-149.00;100.00;66333.84;5100083;27;45348;-75
2021/12/13 11:12:19;;;;;;;;;3.00;3.00;;;;;-149.00;100.00;66333.84;5100184;27;45333;-74
2021/12/13 11:14:49;;;;;;;;;3.67;3.67;;;;;-149.00;100.00;66333.84;5099975;27;45734;-74
2021/12/13 11:17:20;;;;;;;;;4.33;4.33;;;;;-149.00;100.00;66333.84;5099511;27;46254;-75
2021/12/13 11:19:49;;;;;;;;;4.00;4.00;;;;;-149.00;100.00;66333.84;5100015;27;45174;-75
2021/12/13 11:22:21;;;;;;;;;7.00;7.00;;;;;-149.00;100.00;66333.84;5099908;27;45401;-75
2021/12/13 11:24:52;;;;;;;;;8.00;6.33;;;;;-149.00;100.00;66333.84;5098418;27;45899;-76
2021/12/13 11:27:21;;;;;;;;;7.67;6.00;;;;;-149.00;100.00;66333.84;5099736;27;45392;-76
2021/12/13 11:29:49;;;;;;;;;5.33;4.67;;;;;-149.00;100.00;66333.84;5100006;27;45387;-75
2021/12/13 11:32:37;;;;;;;;;6.33;6.33;;;;;-149.00;100.00;66333.84;5101971;27;45377;-75
2021/12/13 11:35:15;;;;;;;;;8.67;6.00;;;;;-149.00;100.00;66333.84;5103321;27;45339;-74
2021/12/13 11:38:10;;;;;;;;;8.33;7.00;;;;;-149.00;100.00;66333.84;5103264;27;45269;-76
2021/12/13 11:41:12;;;;;;;;;9.00;8.00;;;;;-149.00;100.00;66333.84;5105316;27;45226;-75
2021/12/13 11:44:15;;;;;;;;;5.33;5.33;;;;;-149.00;100.00;66333.84;5123654;27;45297;-75